Bridgeton, MO (63044)

12:21 PM CST on December 08, 2016 (GMT -0600)
Depaul Hills | | Change Station

Elev 571 ft 38.75 °N, 90.42 °W | Updated 41 seconds ago

Partly Cloudy
Partly Cloudy
26.6 °F
Feels Like 17 °F
N
9.8
Wind Variable Wind from WNW
Gusts 12.3 mph

Today
High -- | Low -- °F
--% Chance of Precip.
Yesterday
High -- | Low -- °F
Precip. -- in
Pressure 30.54 in
Visibility 10.0 miles
Clouds Few 2000 ft
Few 25000 ft
Windchill 17 °F
Dew Point 5 °F
Humidity 39%
Rainfall 0.00 in
Snow Depth Not available.
7:07 AM 4:39 PM
Waxing Gibbous, 65% visible
METAR KSTL 081751Z 29015G23KT 10SM FEW020 FEW250 M02/M12 A3050 RMK AO2 PK WND 29028/1729 SLP340 T10171117 11017 21061 50004
Pressure 30.54 in
Visibility 10.0 miles
Clouds Few 2000 ft
Few 25000 ft
Windchill 17 °F
Dew Point 5 °F
Humidity 39%
Rainfall 0.00 in
Snow Depth Not available.
7:07 AM 4:39 PM
Waxing Gibbous, 65% visible
METAR KSTL 081751Z 29015G23KT 10SM FEW020 FEW250 M02/M12 A3050 RMK AO2 PK WND 29028/1729 SLP340 T10171117 11017 21061 50004

10-Day Weather Forecast

Almanac

Astronomy

Dec. 08, 2016 Rise Set
Actual Time
Civil Twilight
Nautical Twilight
Astronomical Twilight
Moon
Length of Visible Light
Length of Day
Tomorrow will be .
, % of the Moon is Illuminated

Today's Extremes

State Highs State Lows

Community

WunderPhotos

Upload Photos

1,956,277 photos uploaded!

WunderBlog® & News

Nearby

Air Quality

  Air Quality AQ Index Pollutant
Not available.

Snow Depth

Station Depth Elevation

Earthquake Activity

City Distance Mag. Time & Date
Minimum magnitude displayed is 2.5.

Coastal Water Temperatures

Place Temperature

Stations

Nearby Weather Stations

Station Location Temp. Windchill Dew Point Humidity Wind Precip. Elev Updated Type
                   

Watches & Warnings

There are currently no watches in effect.